Portada
METAR-TAF:

METAR-TAF

Aeroports :

Adrar, Algèria

latitud: 27-53N, longitud: 000-17W, altitud: 263 m

Observació

L'informe es va fer fa 38 minuts, a les 14:00 UTC
Vent 12 kt del Nord-Est
Temperatura 44°C
Pressió 1009 hPa
Visibilitat 10 km o més
sense núvols per sota de 1500 mi sense presència de cumulonimbus.

METAR: DAUA 251400Z 04012KT CAVOK 44/// Q1009

Hora: 15:38 (14:38 UTC)

Pronòstic

L'informe es va fer fa 3 hores i 38 minuts, a les 11:00 UTC
Pronòstic vàlid del 25 a les 12 UTC al 26 a les 12 UTC
Vent 14 kt del Est
Visibilitat 10 km o més
sense núvols per sota de 1500 mi sense presència de cumulonimbus.

TAF: DAUA 251100Z 2512/2612 08014KT CAVOK

Observacions i pronòstics meteorològics de més de 4000 aeroports (METAR i TAF).

Les estacions disponibles són els punts grocs i vermells al mapa.

Posi el ratolí al punt desitjat per veure el nom de l'estació.

Feu clic per veure les observacions i els pronòstics meteorològics.

Per canviar el mapa: feu clic els botons verds amb una creu de color negre per apropar; al botó verd amb un guió per allunyar la imatge; o en les fletxes verdes per a mapes adjacents.


METAR-TAF: